Time,TemperatureF,DewpointF,PressureIn,WindDirection,WindDirectionDegrees,WindSpeedMPH,WindSpeedGustMPH,Humidity,HourlyPrecipIn,Conditions,Clouds,dailyrainin,SolarRadiationWatts/m^2,SoftwareType,DateUTC
2013-07-02 00:02:00,64.0,64.0,-100.00,WSW,254,0.0,3.0,99,0.00,,,0.22,0.000000,,2013-07-02 04:02:00,
2013-07-02 00:42:00,64.0,64.0,-100.00,West,276,2.0,4.0,99,0.00,,,0.22,0.000000,,2013-07-02 04:42:00,
2013-07-02 00:54:00,64.0,64.0,-100.00,West,276,2.0,4.0,99,0.00,,,0.22,0.000000,,2013-07-02 04:54:00,
2013-07-02 01:02:00,64.0,64.0,-100.00,West,276,2.0,4.0,99,0.00,,,0.22,0.000000,,2013-07-02 05:02:00,
2013-07-02 01:32:00,63.0,63.0,-100.00,West,262,2.0,4.0,99,0.00,,,0.22,0.000000,,2013-07-02 05:32:00,
2013-07-02 01:43:00,63.0,63.0,-100.00,West,262,2.0,4.0,99,0.00,,,0.22,0.000000,,2013-07-02 05:43:00,
2013-07-02 01:53:00,63.0,63.0,-100.00,West,262,2.0,4.0,99,0.00,,,0.22,0.000000,,2013-07-02 05:53:00,
2013-07-02 02:01:00,63.0,63.0,-100.00,West,262,2.0,4.0,99,0.00,,,0.22,0.000000,,2013-07-02 06:01:00,
2013-07-02 02:43:00,64.0,64.0,-100.00,WSW,256,2.0,3.0,99,0.00,,,0.22,0.000000,,2013-07-02 06:43:00,
2013-07-02 02:53:00,64.0,64.0,-100.00,WSW,256,2.0,3.0,99,0.00,,,0.22,0.000000,,2013-07-02 06:53:00,
2013-07-02 03:01:00,64.0,64.0,-100.00,WSW,256,2.0,3.0,99,0.00,,,0.22,0.000000,,2013-07-02 07:01:00,
2013-07-02 03:44:00,64.0,64.0,-100.00,East,84,2.0,5.0,99,0.00,,,0.22,0.000000,,2013-07-02 07:44:00,
2013-07-02 03:53:00,64.0,64.0,-100.00,East,84,2.0,5.0,99,0.00,,,0.22,0.000000,,2013-07-02 07:53:00,
2013-07-02 04:02:00,64.0,64.0,-100.00,East,84,2.0,5.0,99,0.00,,,0.22,0.000000,,2013-07-02 08:02:00,
2013-07-02 04:33:00,64.0,64.0,-100.00,ESE,103,1.0,5.0,99,0.05,,,0.26,0.000000,,2013-07-02 08:33:00,
2013-07-02 04:44:00,64.0,64.0,-100.00,ESE,103,1.0,5.0,99,0.05,,,0.26,0.000000,,2013-07-02 08:44:00,
2013-07-02 04:53:00,64.0,64.0,-100.00,ESE,103,1.0,5.0,99,0.05,,,0.26,0.000000,,2013-07-02 08:53:00,
2013-07-02 05:02:00,64.0,64.0,-100.00,ESE,103,1.0,5.0,99,0.05,,,0.26,0.000000,,2013-07-02 09:02:00,
2013-07-02 05:43:00,64.0,64.0,-100.00,SE,143,1.0,3.0,99,0.01,,,0.27,0.000000,,2013-07-02 09:43:00,
2013-07-02 05:52:00,64.0,64.0,-100.00,SE,143,1.0,3.0,99,0.01,,,0.27,0.000000,,2013-07-02 09:52:00,
2013-07-02 06:01:00,64.0,64.0,-100.00,SE,143,1.0,3.0,99,0.01,,,0.27,0.000000,,2013-07-02 10:01:00,
2013-07-02 06:44:00,64.0,64.0,-100.00,NE,36,1.0,4.0,99,0.03,,,0.30,0.000000,,2013-07-02 10:44:00,
2013-07-02 06:52:00,64.0,64.0,-100.00,NE,36,1.0,4.0,99,0.03,,,0.30,0.000000,,2013-07-02 10:52:00,
2013-07-02 07:01:00,64.0,64.0,-100.00,NE,36,1.0,4.0,99,0.03,,,0.30,0.000000,,2013-07-02 11:01:00,
2013-07-02 07:42:00,65.0,65.0,-100.00,NE,51,1.0,5.0,99,0.02,,,0.32,6.000000,,2013-07-02 11:42:00,
2013-07-02 07:52:00,65.0,65.0,-100.00,NE,51,1.0,5.0,99,0.02,,,0.32,6.000000,,2013-07-02 11:52:00,
2013-07-02 08:01:00,65.0,65.0,-100.00,NE,51,1.0,5.0,99,0.02,,,0.32,6.000000,,2013-07-02 12:01:00,
2013-07-02 08:43:00,67.0,66.0,-100.00,South,191,2.0,4.0,98,0.00,,,0.32,74.000000,,2013-07-02 12:43:00,
2013-07-02 08:52:00,67.0,66.0,-100.00,South,191,2.0,4.0,98,0.00,,,0.32,74.000000,,2013-07-02 12:52:00,
2013-07-02 09:01:00,67.0,66.0,-100.00,South,191,2.0,4.0,98,0.00,,,0.32,74.000000,,2013-07-02 13:01:00,
2013-07-02 09:43:00,72.0,70.0,-100.00,SW,222,2.0,5.0,93,0.00,,,0.32,231.000000,,2013-07-02 13:43:00,
2013-07-02 09:52:00,72.0,70.0,-100.00,SW,222,2.0,5.0,93,0.00,,,0.32,231.000000,,2013-07-02 13:52:00,
2013-07-02 10:02:00,72.0,70.0,-100.00,SW,222,2.0,5.0,93,0.00,,,0.32,231.000000,,2013-07-02 14:02:00,
2013-07-02 10:43:00,74.0,70.0,-100.00,SSE,164,4.0,8.0,86,0.00,,,0.32,306.000000,,2013-07-02 14:43:00,
2013-07-02 10:53:00,74.0,70.0,-100.00,SSE,164,4.0,8.0,86,0.00,,,0.32,306.000000,,2013-07-02 14:53:00,
2013-07-02 11:02:00,74.0,70.0,-100.00,SSE,164,4.0,8.0,86,0.00,,,0.32,306.000000,,2013-07-02 15:02:00,
2013-07-02 11:33:00,77.0,70.0,-100.00,SE,140,4.0,11.0,80,0.00,,,0.32,524.000000,,2013-07-02 15:33:00,
2013-07-02 11:44:00,77.0,70.0,-100.00,SE,140,4.0,11.0,80,0.00,,,0.32,524.000000,,2013-07-02 15:44:00,
2013-07-02 11:53:00,77.0,70.0,-100.00,SE,140,4.0,11.0,80,0.00,,,0.32,524.000000,,2013-07-02 15:53:00,
2013-07-02 12:01:00,77.0,70.0,-100.00,SE,140,4.0,11.0,80,0.00,,,0.32,524.000000,,2013-07-02 16:01:00,
2013-07-02 13:02:00,81.0,71.0,-100.00,South,186,3.0,11.0,71,0.00,,,0.32,796.000000,,2013-07-02 17:02:00,
2013-07-02 13:43:00,82.0,69.0,-100.00,South,169,4.0,12.0,65,0.00,,,0.32,860.000000,,2013-07-02 17:43:00,
2013-07-02 13:53:00,82.0,69.0,-100.00,South,169,4.0,12.0,65,0.00,,,0.32,860.000000,,2013-07-02 17:53:00,
2013-07-02 14:02:00,82.0,69.0,-100.00,South,169,4.0,12.0,65,0.00,,,0.32,860.000000,,2013-07-02 18:02:00,
2013-07-02 14:43:00,82.0,67.0,-100.00,South,189,5.0,15.0,60,0.00,,,0.32,936.000000,,2013-07-02 18:43:00,
2013-07-02 14:53:00,82.0,67.0,-100.00,South,189,5.0,15.0,60,0.00,,,0.32,936.000000,,2013-07-02 18:53:00,
2013-07-02 15:01:00,82.0,67.0,-100.00,South,189,5.0,15.0,60,0.00,,,0.32,936.000000,,2013-07-02 19:01:00,
2013-07-02 15:34:00,84.0,66.0,-100.00,SSE,150,4.0,14.0,55,0.00,,,0.32,896.000000,,2013-07-02 19:34:00,
2013-07-02 15:43:00,84.0,66.0,-100.00,SSE,150,4.0,14.0,55,0.00,,,0.32,896.000000,,2013-07-02 19:43:00,
2013-07-02 15:53:00,84.0,66.0,-100.00,SSE,150,4.0,14.0,55,0.00,,,0.32,896.000000,,2013-07-02 19:53:00,
2013-07-02 16:02:00,84.0,66.0,-100.00,SSE,150,4.0,14.0,55,0.00,,,0.32,896.000000,,2013-07-02 20:02:00,
2013-07-02 16:33:00,83.0,64.0,-100.00,South,186,4.0,12.0,53,0.00,,,0.32,768.000000,,2013-07-02 20:33:00,
2013-07-02 16:43:00,83.0,64.0,-100.00,South,186,4.0,12.0,53,0.00,,,0.32,768.000000,,2013-07-02 20:43:00,
2013-07-02 16:52:00,83.0,64.0,-100.00,South,186,4.0,12.0,53,0.00,,,0.32,768.000000,,2013-07-02 20:52:00,
2013-07-02 17:44:00,83.0,64.0,-100.00,SSW,196,5.0,12.0,52,0.00,,,0.17,656.000000,,2013-07-02 21:44:00,
2013-07-02 17:52:00,83.0,64.0,-100.00,SSW,196,5.0,12.0,52,0.00,,,0.17,656.000000,,2013-07-02 21:52:00,
2013-07-02 18:01:00,83.0,64.0,-100.00,SSW,196,5.0,12.0,52,0.00,,,0.17,656.000000,,2013-07-02 22:01:00,
2013-07-02 18:34:00,81.0,63.0,-100.00,SSW,208,6.0,12.0,54,0.00,,,0.11,477.000000,,2013-07-02 22:34:00,
2013-07-02 18:43:00,81.0,63.0,-100.00,SSW,208,6.0,12.0,54,0.00,,,0.11,477.000000,,2013-07-02 22:43:00,
2013-07-02 18:53:00,81.0,63.0,-100.00,SSW,208,6.0,12.0,54,0.00,,,0.11,477.000000,,2013-07-02 22:53:00,
2013-07-02 19:01:00,81.0,63.0,-100.00,SSW,208,6.0,12.0,54,0.00,,,0.11,477.000000,,2013-07-02 23:01:00,
2013-07-02 19:33:00,80.0,64.0,-100.00,SSW,196,5.0,11.0,58,0.00,,,0.11,332.000000,,2013-07-02 23:33:00,
2013-07-02 19:44:00,80.0,64.0,-100.00,SSW,196,5.0,11.0,58,0.00,,,0.11,332.000000,,2013-07-02 23:44:00,
2013-07-02 19:52:00,80.0,64.0,-100.00,SSW,196,5.0,11.0,58,0.00,,,0.11,332.000000,,2013-07-02 23:52:00,
2013-07-02 20:01:00,80.0,64.0,-100.00,SSW,196,5.0,11.0,58,0.00,,,0.11,332.000000,,2013-07-03 00:01:00,
2013-07-02 20:33:00,72.0,66.0,-100.00,WSW,243,2.0,11.0,82,0.00,,,0.11,49.000000,,2013-07-03 00:33:00,
2013-07-02 20:44:00,72.0,66.0,-100.00,WSW,243,2.0,11.0,82,0.00,,,0.11,49.000000,,2013-07-03 00:44:00,
2013-07-02 20:52:00,72.0,66.0,-100.00,WSW,243,2.0,11.0,82,0.00,,,0.11,49.000000,,2013-07-03 00:52:00,
2013-07-02 21:01:00,72.0,66.0,-100.00,WSW,243,2.0,11.0,82,0.00,,,0.11,49.000000,,2013-07-03 01:01:00,
2013-07-02 21:05:00,69.0,66.0,-100.00,South,181,2.0,5.0,90,0.06,,,0.17,15.000000,,2013-07-03 01:05:00,
2013-07-02 21:33:00,69.0,66.0,-100.00,South,181,2.0,5.0,90,0.06,,,0.17,15.000000,,2013-07-03 01:33:00,
2013-07-02 21:43:00,69.0,66.0,-100.00,South,181,2.0,5.0,90,0.06,,,0.17,15.000000,,2013-07-03 01:43:00,
2013-07-02 21:59:00,69.0,66.0,-100.00,South,181,2.0,5.0,90,0.06,,,0.17,15.000000,,2013-07-03 01:59:00,
2013-07-02 22:05:00,66.0,65.0,-100.00,SSE,147,1.0,9.0,96,0.26,,,0.43,0.000000,,2013-07-03 02:05:00,
2013-07-02 22:40:00,66.0,65.0,-100.00,SSE,147,1.0,9.0,96,0.26,,,0.43,0.000000,,2013-07-03 02:40:00,
2013-07-02 22:46:00,66.0,65.0,-100.00,SSE,147,1.0,9.0,96,0.26,,,0.43,0.000000,,2013-07-03 02:46:00,
2013-07-02 22:59:00,66.0,65.0,-100.00,SSE,147,1.0,9.0,96,0.26,,,0.43,0.000000,,2013-07-03 02:59:00,
2013-07-02 23:49:00,65.0,65.0,-100.00,South,182,2.0,8.0,99,0.86,,,1.29,0.000000,,2013-07-03 03:49:00,